createdAt,value
2022-09-12T00:00:10.982Z,100607.28
2022-09-12T00:06:59.139Z,100610.22
2022-09-12T00:13:45.826Z,100600.97
2022-09-12T00:20:34.065Z,100602.84
2022-09-12T00:27:19.468Z,100601.03
2022-09-12T00:34:05.623Z,100608.38
2022-09-12T00:40:53.437Z,100593.19
2022-09-12T00:47:40.688Z,100595.38
2022-09-12T00:54:31.024Z,100590.28
2022-09-12T01:01:19.034Z,100597.69
2022-09-12T01:08:05.952Z,100595.28
2022-09-12T01:14:54.412Z,100600.84
2022-09-12T01:21:54.225Z,100584.84
2022-09-12T01:29:28.272Z,100509.19
2022-09-12T01:36:42.434Z,100582.78
2022-09-12T01:43:36.086Z,100518.44
2022-09-12T01:50:25.604Z,100570.38
2022-09-12T01:57:21.692Z,100567.84
2022-09-12T02:04:13.405Z,100558.34
2022-09-12T02:11:03.442Z,100547.56
2022-09-12T02:17:54.389Z,100543.66
2022-09-12T02:24:43.380Z,100556.34
2022-09-12T02:31:36.049Z,100550.59
2022-09-12T02:38:32.985Z,100536.03
2022-09-12T03:06:07.290Z,100534.06
2022-09-12T03:13:02.340Z,100546.63
2022-09-12T03:20:01.653Z,100534.97
2022-09-12T03:26:56.068Z,100541.09
2022-09-12T03:33:41.455Z,100545.06
2022-09-12T03:40:26.855Z,100531.91
2022-09-12T03:47:14.869Z,100535.84
2022-09-12T03:54:00.336Z,100544.91
2022-09-12T04:00:45.762Z,100533.69
2022-09-12T04:07:33.832Z,100517.94
2022-09-12T04:14:19.284Z,100522.59
2022-09-12T04:21:08.224Z,100522.50
2022-09-12T04:27:56.229Z,100535.13
2022-09-12T04:34:41.896Z,100521.69
2022-09-12T04:41:30.794Z,100541.28
2022-09-12T04:48:18.739Z,100541.16
2022-09-12T04:55:04.145Z,100545.09
2022-09-12T05:01:50.332Z,100541.28
2022-09-12T05:08:39.213Z,100539.56
2022-09-12T05:15:25.196Z,100548.94
2022-09-12T05:22:10.621Z,100550.44
2022-09-12T05:28:58.684Z,100548.84
2022-09-12T05:35:44.266Z,100491.44
2022-09-12T05:42:29.612Z,100555.09
2022-09-12T05:49:17.639Z,100549.38
2022-09-12T05:56:11.754Z,100548.94
2022-09-12T06:02:57.108Z,100558.09
2022-09-12T06:09:45.057Z,100551.63
2022-09-12T06:16:33.113Z,100503.72
2022-09-12T06:23:18.568Z,100541.53
2022-09-12T06:30:07.169Z,100533.41
2022-09-12T06:36:53.188Z,100531.69
2022-09-12T06:43:38.836Z,100525.88
2022-09-12T06:50:26.938Z,100520.88
2022-09-12T06:57:12.330Z,100528.56
2022-09-12T07:04:00.199Z,100513.56
2022-09-12T07:10:48.276Z,100511.53
2022-09-12T07:17:33.687Z,100518.25
2022-09-12T07:24:19.066Z,100495.38
2022-09-12T07:31:13.543Z,100476.44
2022-09-12T07:37:59.229Z,100515.09
2022-09-12T07:44:44.877Z,100514.00
2022-09-12T07:51:34.523Z,100517.66
2022-09-12T07:58:19.888Z,100510.03
2022-09-12T08:05:05.357Z,100522.97
2022-09-12T08:11:53.603Z,100520.19
2022-09-12T08:18:39.689Z,100525.63
2022-09-12T08:25:25.076Z,100524.56
2022-09-12T08:32:13.428Z,100526.22
2022-09-12T08:39:01.699Z,100521.47
2022-09-12T08:46:00.607Z,100515.84
2022-09-12T08:52:58.696Z,100504.56
2022-09-12T08:59:48.357Z,100512.91
2022-09-12T09:07:18.288Z,100512.75
2022-09-12T09:14:41.507Z,100501.09
2022-09-12T09:21:32.430Z,100500.34
2022-09-12T09:28:23.812Z,100510.22
2022-09-12T09:35:21.932Z,100516.50
2022-09-12T09:42:23.136Z,100511.59
2022-09-12T09:49:10.532Z,100500.97
2022-09-12T09:56:01.905Z,100497.19
2022-09-12T10:02:47.612Z,100495.81
2022-09-12T10:09:34.983Z,100490.13
2022-09-12T10:16:28.552Z,100484.56
2022-09-12T10:23:33.458Z,100469.38
2022-09-12T10:30:25.087Z,100479.09
2022-09-12T10:37:21.465Z,100418.50
2022-09-12T10:44:12.061Z,100467.09
2022-09-12T10:50:57.477Z,100458.31
2022-09-12T10:58:11.562Z,100449.09
2022-09-12T11:05:06.581Z,100438.69
2022-09-12T11:12:10.927Z,100432.25
2022-09-12T11:19:47.285Z,100431.41
2022-09-12T11:26:56.143Z,100424.88
2022-09-12T11:33:46.713Z,100430.53
2022-09-12T11:40:42.285Z,100415.19
2022-09-12T11:47:28.685Z,100415.91
2022-09-12T11:54:23.321Z,100412.28
2022-09-12T12:01:20.960Z,100399.69
2022-09-12T12:08:10.007Z,100373.28
2022-09-12T12:14:59.053Z,100295.81
2022-09-12T12:21:48.929Z,100381.06
2022-09-12T12:29:02.413Z,100369.41
2022-09-12T12:36:05.361Z,100363.97
2022-09-12T12:43:31.894Z,100355.78
2022-09-12T12:50:26.772Z,100342.03
2022-09-12T12:57:30.657Z,100340.69
2022-09-12T13:04:22.665Z,100315.72
2022-09-12T13:11:13.061Z,100299.69
2022-09-12T13:18:06.011Z,100311.97
2022-09-12T13:24:55.060Z,100308.94
2022-09-12T13:31:45.263Z,100272.94
2022-09-12T13:38:49.792Z,100295.25
2022-09-12T13:45:42.051Z,100286.19
2022-09-12T13:52:31.120Z,100265.66
2022-09-12T13:59:16.512Z,100279.13
2022-09-12T14:06:06.387Z,100255.09
2022-09-12T14:12:52.853Z,100267.81
2022-09-12T14:19:38.560Z,100269.44
2022-09-12T14:26:28.334Z,100255.47
2022-09-12T14:33:23.766Z,100249.69
2022-09-12T14:40:22.785Z,100248.00
2022-09-12T14:47:27.762Z,100239.94
2022-09-12T14:54:40.278Z,100224.94
2022-09-12T15:01:29.273Z,100221.75
2022-09-12T15:08:18.908Z,100211.06
2022-09-12T15:15:17.606Z,100176.66
2022-09-12T15:22:03.087Z,100211.00
2022-09-12T15:28:51.881Z,100196.78
2022-09-12T15:35:37.549Z,100196.44
2022-09-12T15:42:32.156Z,100190.72
2022-09-12T15:49:20.088Z,100181.97
2022-09-12T15:56:06.346Z,100181.38
2022-09-12T16:02:54.925Z,100156.84
2022-09-12T16:09:43.087Z,100172.38
2022-09-12T16:16:28.463Z,100172.31
2022-09-12T16:23:15.268Z,100173.41
2022-09-12T16:30:03.376Z,100158.06
2022-09-12T16:36:48.745Z,100183.41
2022-09-12T16:43:35.927Z,100162.47
2022-09-12T16:50:23.982Z,100150.44
2022-09-12T16:57:09.440Z,100145.34
2022-09-12T17:03:57.032Z,100134.78
2022-09-12T17:10:46.995Z,100144.50
2022-09-12T17:17:32.331Z,100156.69
2022-09-12T17:24:18.090Z,100158.03
2022-09-12T17:31:09.336Z,100073.09
2022-09-12T17:37:54.812Z,100159.84
2022-09-12T17:44:40.557Z,100112.97
2022-09-12T17:51:30.813Z,100149.75
2022-09-12T17:58:16.301Z,100159.91
2022-09-12T18:05:05.345Z,100157.16
2022-09-12T18:11:53.744Z,100160.47
2022-09-12T18:18:40.687Z,100156.09
2022-09-12T18:25:26.229Z,100161.44
2022-09-12T18:32:14.582Z,100160.47
2022-09-12T18:39:02.665Z,100156.91
2022-09-12T18:45:48.184Z,100162.25
2022-09-12T18:52:36.244Z,100159.06
2022-09-12T18:59:21.855Z,100150.38
2022-09-12T19:06:12.213Z,100147.81
2022-09-12T19:13:02.057Z,100156.38
2022-09-12T19:19:47.415Z,100159.31
2022-09-12T19:26:33.359Z,100130.19
2022-09-12T19:33:21.513Z,100165.06
2022-09-12T19:40:08.087Z,100159.19
2022-09-12T19:46:53.773Z,100152.81
2022-09-12T19:53:42.564Z,100143.69
2022-09-12T20:00:28.158Z,100134.94
2022-09-12T20:07:13.574Z,100137.00
2022-09-12T20:14:02.078Z,100124.97
2022-09-12T20:20:47.431Z,100113.00
2022-09-12T20:27:33.061Z,100026.88
2022-09-12T20:34:24.727Z,100025.69
2022-09-12T20:41:12.423Z,100069.34
2022-09-12T20:47:58.160Z,100113.81
2022-09-12T20:54:45.948Z,100076.16
2022-09-12T21:01:33.089Z,100056.94
2022-09-12T21:08:18.807Z,100037.72
2022-09-12T21:15:07.498Z,100049.72
2022-09-12T21:21:53.026Z,100038.03
2022-09-12T21:28:39.520Z,100062.53
2022-09-12T21:35:27.472Z,100061.72
2022-09-12T21:42:13.004Z,100072.13
2022-09-12T21:48:58.664Z,100073.31
2022-09-12T21:55:46.717Z,100040.47
2022-09-12T22:02:32.371Z,100048.03
2022-09-12T22:09:17.981Z,100072.88
2022-09-12T22:16:07.752Z,100066.41
2022-09-12T22:23:05.888Z,100067.56
2022-09-12T22:29:53.255Z,100057.53
2022-09-12T22:36:41.268Z,100052.25
2022-09-12T22:43:26.766Z,100048.22
2022-09-12T22:50:12.499Z,100049.41
2022-09-12T22:57:00.483Z,100051.75
2022-09-12T23:03:46.522Z,100048.94
2022-09-12T23:10:32.249Z,100050.91
2022-09-12T23:17:20.167Z,100034.88
2022-09-12T23:24:06.837Z,100033.28
2022-09-12T23:31:00.198Z,100033.19
2022-09-12T23:37:48.698Z,100037.16
2022-09-12T23:44:34.032Z,99980.91
2022-09-12T23:51:21.762Z,99958.34
2022-09-12T23:58:10.059Z,100039.31
